createdAt,value
2023-05-13T00:00:18.242Z,64.98
2023-05-13T00:02:45.890Z,64.29
2023-05-13T00:05:13.149Z,65.34
2023-05-13T00:07:41.734Z,64.10
2023-05-13T00:10:09.452Z,61.62
2023-05-13T00:12:37.195Z,64.06
2023-05-13T00:15:04.605Z,62.25
2023-05-13T00:17:32.422Z,64.94
2023-05-13T00:19:59.678Z,63.56
2023-05-13T00:22:26.818Z,66.63
2023-05-13T00:24:54.261Z,65.91
2023-05-13T00:27:21.458Z,66.09
2023-05-13T00:29:48.941Z,66.87
2023-05-13T00:32:16.549Z,66.22
2023-05-13T00:34:43.732Z,65.60
2023-05-13T00:37:12.179Z,64.13
2023-05-13T00:39:39.673Z,63.79
2023-05-13T00:42:06.848Z,61.18
2023-05-13T00:44:34.794Z,65.42
2023-05-13T00:47:02.328Z,64.68
2023-05-13T00:49:29.506Z,66.65
2023-05-13T00:51:56.706Z,67.32
2023-05-13T00:54:24.162Z,65.81
2023-05-13T00:56:56.573Z,62.67
2023-05-13T00:59:24.894Z,63.56
2023-05-13T01:01:52.250Z,66.34
2023-05-13T01:04:25.327Z,64.67
2023-05-13T01:07:04.914Z,65.27
2023-05-13T01:09:53.354Z,63.86
2023-05-13T01:12:29.734Z,61.05
2023-05-13T01:15:07.541Z,65.58
2023-05-13T01:17:41.775Z,63.32
2023-05-13T01:20:09.341Z,63.64
2023-05-13T01:22:36.937Z,61.49
2023-05-13T01:25:04.978Z,62.20
2023-05-13T01:27:32.490Z,62.18
2023-05-13T01:30:00.615Z,62.98
2023-05-13T01:32:28.084Z,61.62
2023-05-13T01:34:55.429Z,61.25
2023-05-13T01:37:23.027Z,62.27
2023-05-13T01:39:50.642Z,61.01
2023-05-13T01:42:17.952Z,59.72
2023-05-13T01:44:45.548Z,60.62
2023-05-13T01:47:12.725Z,61.30
2023-05-13T01:49:39.885Z,62.61
2023-05-13T01:52:07.405Z,60.52
2023-05-13T01:54:34.576Z,60.79
2023-05-13T01:57:03.295Z,61.46
2023-05-13T01:59:30.928Z,62.18
2023-05-13T02:01:59.380Z,63.16
2023-05-13T02:04:27.445Z,64.82
2023-05-13T02:06:54.755Z,65.44
2023-05-13T02:09:22.564Z,64.81
2023-05-13T02:11:50.060Z,62.96
2023-05-13T02:14:17.297Z,61.93
2023-05-13T02:16:44.543Z,63.41
2023-05-13T02:19:12.219Z,63.23
2023-05-13T02:21:39.785Z,62.20
2023-05-13T02:24:07.433Z,61.41
2023-05-13T02:26:34.671Z,62.17
2023-05-13T02:29:02.106Z,61.60
2023-05-13T02:31:29.686Z,61.22
2023-05-13T02:33:56.931Z,61.99
2023-05-13T02:36:24.910Z,63.08
2023-05-13T02:38:52.426Z,62.83
2023-05-13T02:41:19.768Z,63.81
2023-05-13T02:43:47.741Z,64.33
2023-05-13T02:46:15.684Z,61.53
2023-05-13T02:48:44.184Z,63.42
2023-05-13T02:51:11.620Z,64.01
2023-05-13T02:53:39.369Z,61.89
2023-05-13T02:56:07.729Z,63.52
2023-05-13T02:58:35.957Z,63.17
2023-05-13T03:01:03.221Z,64.47
2023-05-13T03:03:30.762Z,65.62
2023-05-13T03:05:58.320Z,63.32
2023-05-13T03:08:25.656Z,64.69
2023-05-13T03:10:54.058Z,64.60
2023-05-13T03:13:21.646Z,62.50
2023-05-13T03:15:48.892Z,66.02
2023-05-13T03:18:16.166Z,66.46
2023-05-13T03:20:43.594Z,64.19
2023-05-13T03:23:11.020Z,63.37
2023-05-13T03:25:38.184Z,61.77
2023-05-13T03:28:06.642Z,61.97
2023-05-13T03:30:34.627Z,61.97
2023-05-13T03:33:02.256Z,64.02
2023-05-13T03:35:29.786Z,64.90
2023-05-13T03:37:56.959Z,62.28
2023-05-13T03:40:24.509Z,60.90
2023-05-13T03:42:52.033Z,60.58
2023-05-13T03:45:19.535Z,63.15
2023-05-13T03:47:47.894Z,64.63
2023-05-13T03:50:15.944Z,66.63
2023-05-13T03:52:45.534Z,65.62
2023-05-13T03:55:15.257Z,63.11
2023-05-13T03:57:45.029Z,62.32
2023-05-13T04:00:12.592Z,66.44
2023-05-13T04:02:41.884Z,64.95
2023-05-13T04:05:10.094Z,64.56
2023-05-13T04:07:37.262Z,66.51
2023-05-13T04:10:04.641Z,67.21
2023-05-13T04:12:33.400Z,65.48
2023-05-13T04:15:00.940Z,64.40
2023-05-13T04:17:28.833Z,64.81
2023-05-13T04:19:56.339Z,64.31
2023-05-13T04:22:24.277Z,60.98
2023-05-13T04:24:56.381Z,65.35
2023-05-13T04:27:24.299Z,65.05
2023-05-13T04:29:52.314Z,64.88
2023-05-13T04:32:22.123Z,64.45
2023-05-13T04:34:50.325Z,64.99
2023-05-13T04:37:17.536Z,65.75
2023-05-13T04:39:48.097Z,64.09
2023-05-13T04:42:16.678Z,65.37
2023-05-13T04:44:43.880Z,64.06
2023-05-13T04:47:11.293Z,63.40
2023-05-13T04:49:38.764Z,62.12
2023-05-13T04:52:06.749Z,64.09
2023-05-13T04:54:35.944Z,63.18
2023-05-13T04:57:03.582Z,63.31
2023-05-13T04:59:31.144Z,65.36
2023-05-13T05:01:58.459Z,64.82
2023-05-13T05:04:26.025Z,62.83
2023-05-13T05:06:53.626Z,63.20
2023-05-13T05:09:20.840Z,66.77
2023-05-13T05:11:50.483Z,67.75
2023-05-13T05:14:18.279Z,68.10
2023-05-13T05:16:46.137Z,69.49
2023-05-13T05:19:14.684Z,70.40
2023-05-13T05:21:41.998Z,68.30
2023-05-13T05:24:09.563Z,66.35
2023-05-13T05:26:37.004Z,67.70
2023-05-13T05:29:05.678Z,68.70
2023-05-13T05:31:33.487Z,67.09
2023-05-13T05:34:01.766Z,66.43
2023-05-13T05:36:29.217Z,65.28
2023-05-13T05:38:56.416Z,64.99
2023-05-13T05:41:25.937Z,64.04
2023-05-13T05:43:53.105Z,64.74
2023-05-13T05:46:20.400Z,64.83
2023-05-13T05:48:48.597Z,65.66
2023-05-13T05:51:15.757Z,66.69
2023-05-13T05:53:43.156Z,69.75
2023-05-13T05:56:11.162Z,67.93
2023-05-13T05:58:38.318Z,69.58
2023-05-13T06:01:06.001Z,68.25
2023-05-13T06:03:33.872Z,69.00
2023-05-13T06:06:01.260Z,70.34
2023-05-13T06:08:30.978Z,68.30
2023-05-13T06:10:58.629Z,70.49
2023-05-13T06:13:26.323Z,70.11
2023-05-13T06:15:53.601Z,72.56
2023-05-13T06:18:21.121Z,70.44
2023-05-13T06:20:48.294Z,67.48
2023-05-13T06:23:15.675Z,65.85
2023-05-13T06:25:43.203Z,67.71
2023-05-13T06:28:10.848Z,68.36
2023-05-13T06:30:38.710Z,67.10
2023-05-13T06:33:06.412Z,66.94
2023-05-13T06:35:33.650Z,67.98
2023-05-13T06:38:01.199Z,69.85
2023-05-13T06:40:29.675Z,68.92
2023-05-13T06:42:56.918Z,66.76
2023-05-13T06:45:27.904Z,65.53
2023-05-13T06:47:55.570Z,67.52
2023-05-13T06:50:22.899Z,65.15
2023-05-13T06:52:50.319Z,68.07
2023-05-13T06:55:19.117Z,68.57
2023-05-13T06:57:47.294Z,65.89
2023-05-13T07:00:15.136Z,66.86
2023-05-13T07:02:42.749Z,67.09
2023-05-13T07:05:11.391Z,68.68
2023-05-13T07:07:38.839Z,69.09
2023-05-13T07:10:06.459Z,71.63
2023-05-13T07:12:33.709Z,69.91
2023-05-13T07:15:00.855Z,68.99
2023-05-13T07:17:28.426Z,67.81
2023-05-13T07:19:55.688Z,68.88
2023-05-13T07:22:22.841Z,68.13
2023-05-13T07:24:50.284Z,64.92
2023-05-13T07:27:17.610Z,64.03
2023-05-13T07:29:44.813Z,65.37
2023-05-13T07:32:12.778Z,67.12
2023-05-13T07:34:40.198Z,68.78
2023-05-13T07:37:07.476Z,65.89
2023-05-13T07:39:35.422Z,68.28
2023-05-13T07:42:03.437Z,67.69
2023-05-13T07:44:31.084Z,66.82
2023-05-13T07:46:58.584Z,64.84
2023-05-13T07:49:25.786Z,68.30
2023-05-13T07:51:52.978Z,66.43
2023-05-13T07:54:20.924Z,65.50
2023-05-13T07:56:48.101Z,64.96
2023-05-13T07:59:15.281Z,65.71
2023-05-13T08:01:42.902Z,68.47
2023-05-13T08:04:10.759Z,63.93
2023-05-13T08:06:38.089Z,66.68
2023-05-13T08:09:05.262Z,67.02
2023-05-13T08:11:32.625Z,65.38
2023-05-13T08:13:59.930Z,63.16
2023-05-13T08:16:27.188Z,63.67
2023-05-13T08:18:54.986Z,63.27
2023-05-13T08:21:22.188Z,65.91
2023-05-13T08:23:52.190Z,63.29
2023-05-13T08:26:19.684Z,63.46
2023-05-13T08:28:46.826Z,64.31
2023-05-13T08:31:14.085Z,67.56
2023-05-13T08:33:47.506Z,68.74
2023-05-13T08:36:14.720Z,66.67
2023-05-13T08:38:43.492Z,65.11
2023-05-13T08:41:14.208Z,65.26
2023-05-13T08:43:44.779Z,65.07
2023-05-13T08:46:13.295Z,63.64
2023-05-13T08:48:41.298Z,64.51
2023-05-13T08:51:09.336Z,66.35
2023-05-13T08:53:37.513Z,65.52
2023-05-13T08:56:04.837Z,65.66
2023-05-13T08:58:32.262Z,65.62
2023-05-13T09:00:59.431Z,64.56
2023-05-13T09:03:27.733Z,65.60
2023-05-13T09:05:55.219Z,62.18
2023-05-13T09:08:22.470Z,63.21
2023-05-13T09:10:49.619Z,64.88
2023-05-13T09:13:18.709Z,61.81
2023-05-13T09:15:46.280Z,60.61
2023-05-13T09:18:16.449Z,62.53
2023-05-13T09:20:46.194Z,58.16
2023-05-13T09:23:13.580Z,61.53
2023-05-13T09:25:40.931Z,60.87
2023-05-13T09:28:08.685Z,61.48
2023-05-13T09:30:45.618Z,62.67
2023-05-13T09:33:15.145Z,61.56
2023-05-13T09:35:48.842Z,59.23
2023-05-13T09:38:19.853Z,61.02
2023-05-13T09:41:05.083Z,60.15
2023-05-13T09:43:33.254Z,59.16
2023-05-13T09:46:01.459Z,57.57
2023-05-13T09:48:29.785Z,58.87
2023-05-13T09:50:58.568Z,59.99
2023-05-13T09:53:26.301Z,59.84
2023-05-13T09:55:58.262Z,58.43
2023-05-13T09:58:28.207Z,56.51
2023-05-13T10:00:56.101Z,57.45
2023-05-13T10:03:24.048Z,57.90
2023-05-13T10:05:51.454Z,55.53
2023-05-13T10:08:18.625Z,55.54
2023-05-13T10:10:46.489Z,54.58
2023-05-13T10:13:14.329Z,54.37
2023-05-13T10:15:54.592Z,57.14
2023-05-13T10:18:23.888Z,57.48
2023-05-13T10:20:53.746Z,57.67
2023-05-13T10:23:23.701Z,58.81
2023-05-13T10:25:50.964Z,58.08
2023-05-13T10:28:18.112Z,57.96
2023-05-13T10:30:45.692Z,54.49
2023-05-13T10:33:12.952Z,58.72
2023-05-13T10:35:42.808Z,57.65
2023-05-13T10:38:17.408Z,55.90
2023-05-13T10:40:44.550Z,56.81
2023-05-13T10:43:11.981Z,57.04
2023-05-13T10:45:39.184Z,57.84
2023-05-13T10:48:07.344Z,56.86
2023-05-13T10:50:41.417Z,56.16
2023-05-13T10:53:10.310Z,56.55
2023-05-13T10:55:43.780Z,57.29
2023-05-13T10:58:14.849Z,57.03
2023-05-13T11:00:43.661Z,54.67
2023-05-13T11:03:15.338Z,55.01
2023-05-13T11:06:04.549Z,56.41
2023-05-13T11:08:38.884Z,55.75
2023-05-13T11:11:21.426Z,56.64
2023-05-13T11:13:53.468Z,54.80
2023-05-13T11:16:21.173Z,56.59
2023-05-13T11:18:49.277Z,55.36
2023-05-13T11:21:16.590Z,55.73
2023-05-13T11:23:53.133Z,55.49
2023-05-13T11:26:21.515Z,54.96
2023-05-13T11:28:54.976Z,55.02
2023-05-13T11:31:22.827Z,54.26
2023-05-13T11:34:09.799Z,53.39
2023-05-13T11:36:37.881Z,54.00
2023-05-13T11:39:13.688Z,55.17
2023-05-13T11:41:41.809Z,56.08
2023-05-13T11:44:09.335Z,54.04
2023-05-13T11:46:36.665Z,56.82
2023-05-13T11:49:05.878Z,55.79
2023-05-13T11:51:34.724Z,55.93
2023-05-13T11:54:03.111Z,56.03
2023-05-13T11:56:30.512Z,55.84
2023-05-13T11:59:12.598Z,53.01
2023-05-13T12:01:40.953Z,56.35
2023-05-13T12:04:08.770Z,53.67
2023-05-13T12:06:43.726Z,54.34
2023-05-13T12:09:11.948Z,53.17
2023-05-13T12:11:39.423Z,50.89
2023-05-13T12:14:06.664Z,51.87
2023-05-13T12:16:34.203Z,51.65
2023-05-13T12:19:07.654Z,52.16
2023-05-13T12:21:35.206Z,53.11
2023-05-13T12:24:02.509Z,54.04
2023-05-13T12:26:29.684Z,54.01
2023-05-13T12:28:59.962Z,55.59
2023-05-13T12:31:27.478Z,53.54
2023-05-13T12:33:54.814Z,53.74
2023-05-13T12:36:32.049Z,54.80
2023-05-13T12:39:00.633Z,53.71
2023-05-13T12:41:29.470Z,53.29
2023-05-13T12:44:00.484Z,51.61
2023-05-13T12:46:27.840Z,53.57
2023-05-13T12:48:56.016Z,49.57
2023-05-13T12:51:23.478Z,53.86
2023-05-13T12:53:52.243Z,52.24
2023-05-13T12:56:20.434Z,51.50
2023-05-13T12:58:47.854Z,50.90
2023-05-13T13:01:15.225Z,53.47
2023-05-13T13:03:42.905Z,52.94
2023-05-13T13:06:10.426Z,52.07
2023-05-13T13:08:37.589Z,51.09
2023-05-13T13:11:05.028Z,53.08
2023-05-13T13:13:32.703Z,52.51
2023-05-13T13:16:00.122Z,52.86
2023-05-13T13:18:27.698Z,51.05
2023-05-13T13:20:54.934Z,54.33
2023-05-13T13:23:22.173Z,51.14
2023-05-13T13:25:49.615Z,52.56
2023-05-13T13:28:17.052Z,50.86
2023-05-13T13:30:47.018Z,52.68
2023-05-13T13:33:15.545Z,52.37
2023-05-13T13:35:43.414Z,52.40
2023-05-13T13:38:10.804Z,50.95
2023-05-13T13:40:38.989Z,50.13
2023-05-13T13:43:06.868Z,51.58
2023-05-13T13:45:34.284Z,52.22
2023-05-13T13:48:01.757Z,50.16
2023-05-13T13:50:29.067Z,52.49
2023-05-13T13:52:56.530Z,50.81
2023-05-13T13:55:24.285Z,51.93
2023-05-13T13:57:52.152Z,52.74
2023-05-13T14:00:19.538Z,51.50
2023-05-13T14:02:47.144Z,51.81
2023-05-13T14:05:14.513Z,52.13
2023-05-13T14:07:41.744Z,52.44
2023-05-13T14:10:09.578Z,53.00
2023-05-13T14:12:37.479Z,52.09
2023-05-13T14:15:04.974Z,51.77
2023-05-13T14:17:32.716Z,51.30
2023-05-13T14:19:59.954Z,51.38
2023-05-13T14:22:27.203Z,53.53
2023-05-13T14:24:54.694Z,53.32
2023-05-13T14:27:24.727Z,50.11
2023-05-13T14:29:52.037Z,51.02
2023-05-13T14:32:19.541Z,48.18
2023-05-13T14:34:46.727Z,51.18
2023-05-13T14:37:16.364Z,51.00
2023-05-13T14:39:43.796Z,51.08
2023-05-13T14:42:11.798Z,50.62
2023-05-13T14:44:41.356Z,49.83
2023-05-13T14:47:09.186Z,52.40
2023-05-13T14:49:36.448Z,53.46
2023-05-13T14:52:03.678Z,51.76
2023-05-13T14:54:35.710Z,51.96
2023-05-13T14:57:03.570Z,51.47
2023-05-13T14:59:31.158Z,53.77
2023-05-13T15:01:58.361Z,53.21
2023-05-13T15:04:25.661Z,52.11
2023-05-13T15:06:53.559Z,51.05
2023-05-13T15:09:20.750Z,49.03
2023-05-13T15:11:47.995Z,52.57
2023-05-13T15:14:17.831Z,50.49
2023-05-13T15:16:45.281Z,53.09
2023-05-13T15:19:12.473Z,51.27
2023-05-13T15:21:40.068Z,50.25
2023-05-13T15:24:07.307Z,52.32
2023-05-13T15:26:34.436Z,53.04
2023-05-13T15:29:01.909Z,51.84
2023-05-13T15:31:29.915Z,53.60
2023-05-13T15:33:57.266Z,52.57
2023-05-13T15:36:24.714Z,52.01
2023-05-13T15:38:51.852Z,52.18
2023-05-13T15:41:19.007Z,50.59
2023-05-13T15:43:46.473Z,50.61
2023-05-13T15:46:13.729Z,50.31
2023-05-13T15:48:40.977Z,51.13
2023-05-13T15:51:08.433Z,50.48
2023-05-13T15:53:35.593Z,50.01
2023-05-13T15:56:02.784Z,52.04
2023-05-13T15:58:30.599Z,50.92
2023-05-13T16:00:58.255Z,50.63
2023-05-13T16:03:26.864Z,50.82
2023-05-13T16:05:54.160Z,50.92
2023-05-13T16:08:21.311Z,51.82
2023-05-13T16:10:48.883Z,50.38
2023-05-13T16:13:16.062Z,53.05
2023-05-13T16:15:43.255Z,51.17
2023-05-13T16:18:10.729Z,51.86
2023-05-13T16:20:38.025Z,51.55
2023-05-13T16:23:05.680Z,50.72
2023-05-13T16:25:33.154Z,51.45
2023-05-13T16:28:00.554Z,49.37
2023-05-13T16:30:27.745Z,50.13
2023-05-13T16:32:55.153Z,49.74
2023-05-13T16:35:22.485Z,48.71
2023-05-13T16:37:50.049Z,49.79
2023-05-13T16:40:17.577Z,49.54
2023-05-13T16:42:45.238Z,47.74
2023-05-13T16:45:12.489Z,46.44
2023-05-13T16:47:39.948Z,48.53
2023-05-13T16:50:08.577Z,49.23
2023-05-13T16:52:35.822Z,48.59
2023-05-13T16:55:03.317Z,48.02
2023-05-13T16:57:30.569Z,48.82
2023-05-13T16:59:57.708Z,49.56
2023-05-13T17:02:26.764Z,49.32
2023-05-13T17:04:54.007Z,49.09
2023-05-13T17:07:21.289Z,48.76
2023-05-13T17:09:48.726Z,48.88
2023-05-13T17:12:16.761Z,51.03
2023-05-13T17:14:43.977Z,49.39
2023-05-13T17:17:11.648Z,48.59
2023-05-13T17:19:38.950Z,48.73
2023-05-13T17:22:06.101Z,50.81
2023-05-13T17:24:33.575Z,49.18
2023-05-13T17:27:01.335Z,48.91
2023-05-13T17:29:28.508Z,49.30
2023-05-13T17:31:56.006Z,49.10
2023-05-13T17:34:23.119Z,48.95
2023-05-13T17:36:50.373Z,50.79
2023-05-13T17:39:17.892Z,51.42
2023-05-13T17:41:46.112Z,50.17
2023-05-13T17:44:13.256Z,50.14
2023-05-13T17:46:40.779Z,51.97
2023-05-13T17:49:07.942Z,51.29
2023-05-13T17:51:35.101Z,49.90
2023-05-13T17:54:02.551Z,48.98
2023-05-13T17:56:29.887Z,48.83
2023-05-13T17:58:57.001Z,48.31
2023-05-13T18:01:24.670Z,48.52
2023-05-13T18:03:52.083Z,47.80
2023-05-13T18:06:19.335Z,48.47
2023-05-13T18:08:46.494Z,49.35
2023-05-13T18:11:13.936Z,48.97
2023-05-13T18:13:41.092Z,49.31
2023-05-13T18:16:09.221Z,48.73
2023-05-13T18:18:36.940Z,49.61
2023-05-13T18:21:04.185Z,50.62
2023-05-13T18:23:32.742Z,49.67
2023-05-13T18:26:00.190Z,50.68
2023-05-13T18:28:27.445Z,50.26
2023-05-13T18:30:54.689Z,49.68
2023-05-13T18:33:22.322Z,50.00
2023-05-13T18:35:49.526Z,49.03
2023-05-13T18:38:16.865Z,49.46
2023-05-13T18:40:45.393Z,49.96
2023-05-13T18:43:13.615Z,50.11
2023-05-13T18:45:41.518Z,49.92
2023-05-13T18:48:09.017Z,49.50
2023-05-13T18:50:36.231Z,49.25
2023-05-13T18:53:03.466Z,50.02
2023-05-13T18:55:31.144Z,50.24
2023-05-13T18:57:58.523Z,50.37
2023-05-13T19:00:25.704Z,50.82
2023-05-13T19:02:53.271Z,51.11
2023-05-13T19:05:21.010Z,50.29
2023-05-13T19:07:48.261Z,50.08
2023-05-13T19:10:15.784Z,50.03
2023-05-13T19:12:43.145Z,50.67
2023-05-13T19:15:11.379Z,50.73
2023-05-13T19:17:40.591Z,51.79
2023-05-13T19:20:08.341Z,51.19
2023-05-13T19:22:35.550Z,51.79
2023-05-13T19:25:03.292Z,51.27
2023-05-13T19:27:30.452Z,50.43
2023-05-13T19:29:58.272Z,50.55
2023-05-13T19:32:25.847Z,49.68
2023-05-13T19:34:53.451Z,50.53
2023-05-13T19:37:20.680Z,52.36
2023-05-13T19:39:48.304Z,52.76
2023-05-13T19:42:15.796Z,52.49
2023-05-13T19:44:43.035Z,53.56
2023-05-13T19:47:10.861Z,52.68
2023-05-13T19:49:38.048Z,52.80
2023-05-13T19:52:05.425Z,52.74
2023-05-13T19:54:32.962Z,52.86
2023-05-13T19:57:00.604Z,52.68
2023-05-13T19:59:27.906Z,52.46
2023-05-13T20:01:55.402Z,52.92
2023-05-13T20:04:23.487Z,52.10
2023-05-13T20:06:50.654Z,52.12
2023-05-13T20:09:17.825Z,52.33
2023-05-13T20:11:45.382Z,52.22
2023-05-13T20:14:13.275Z,51.04
2023-05-13T20:16:40.717Z,52.16
2023-05-13T20:19:08.429Z,51.76
2023-05-13T20:21:35.838Z,52.85
2023-05-13T20:24:02.997Z,54.10
2023-05-13T20:26:34.589Z,54.53
2023-05-13T20:29:02.113Z,52.93
2023-05-13T20:31:29.403Z,53.37
2023-05-13T20:33:57.598Z,53.60
2023-05-13T20:36:24.817Z,51.94
2023-05-13T20:38:52.216Z,52.42
2023-05-13T20:41:19.807Z,52.84
2023-05-13T20:43:47.144Z,52.77
2023-05-13T20:46:17.013Z,52.69
2023-05-13T20:48:44.676Z,52.42
2023-05-13T20:51:11.889Z,53.10
2023-05-13T20:53:39.069Z,51.92
2023-05-13T20:56:06.573Z,52.44
2023-05-13T20:58:33.745Z,52.40
2023-05-13T21:01:00.964Z,52.56
2023-05-13T21:03:28.548Z,51.91
2023-05-13T21:05:55.727Z,51.62
2023-05-13T21:08:22.871Z,52.46
2023-05-13T21:10:50.347Z,52.69
2023-05-13T21:13:17.510Z,52.09
2023-05-13T21:15:44.710Z,52.53
2023-05-13T21:18:12.256Z,51.96
2023-05-13T21:20:39.461Z,51.74
2023-05-13T21:23:06.596Z,52.24
2023-05-13T21:25:34.214Z,53.57
2023-05-13T21:28:01.631Z,58.39
2023-05-13T21:30:28.867Z,56.62
2023-05-13T21:32:56.322Z,58.53
2023-05-13T21:35:25.926Z,57.61
2023-05-13T21:37:56.170Z,55.75
2023-05-13T21:40:32.127Z,54.43
2023-05-13T21:42:59.318Z,55.53
2023-05-13T21:45:26.498Z,56.64
2023-05-13T21:47:53.984Z,54.70
2023-05-13T21:50:21.310Z,53.33
2023-05-13T21:52:48.597Z,54.51
2023-05-13T21:55:16.088Z,55.12
2023-05-13T21:57:43.249Z,54.85
2023-05-13T22:00:15.095Z,55.49
2023-05-13T22:02:43.731Z,54.93
2023-05-13T22:05:11.837Z,55.12
2023-05-13T22:07:38.967Z,54.01
2023-05-13T22:10:06.809Z,53.84
2023-05-13T22:12:34.346Z,54.22
2023-05-13T22:15:01.590Z,53.86
2023-05-13T22:17:30.910Z,53.75
2023-05-13T22:19:58.539Z,53.74
2023-05-13T22:22:25.724Z,52.18
2023-05-13T22:24:52.870Z,54.44
2023-05-13T22:27:21.355Z,56.28
2023-05-13T22:29:48.539Z,55.63
2023-05-13T22:32:15.705Z,56.59
2023-05-13T22:34:43.221Z,56.50
2023-05-13T22:37:10.355Z,58.13
2023-05-13T22:39:37.510Z,57.05
2023-05-13T22:42:05.067Z,55.89
2023-05-13T22:44:32.224Z,54.05
2023-05-13T22:46:59.429Z,56.19
2023-05-13T22:49:26.832Z,57.17
2023-05-13T22:51:54.018Z,57.37
2023-05-13T22:54:21.211Z,56.14
2023-05-13T22:56:48.640Z,56.66
2023-05-13T22:59:15.843Z,56.96
2023-05-13T23:01:43.140Z,55.79
2023-05-13T23:04:10.636Z,54.84
2023-05-13T23:06:37.916Z,55.21
2023-05-13T23:09:05.686Z,55.35
2023-05-13T23:11:35.837Z,55.85
2023-05-13T23:14:03.022Z,55.85
2023-05-13T23:16:30.311Z,57.13
2023-05-13T23:18:57.757Z,55.25
2023-05-13T23:21:25.032Z,55.00
2023-05-13T23:23:52.454Z,56.70
2023-05-13T23:26:19.974Z,57.50
2023-05-13T23:28:47.105Z,58.42
2023-05-13T23:31:14.408Z,59.99
2023-05-13T23:33:41.843Z,61.24
2023-05-13T23:36:09.038Z,59.90
2023-05-13T23:38:36.215Z,57.20
2023-05-13T23:41:03.669Z,58.29
2023-05-13T23:43:31.119Z,59.69
2023-05-13T23:45:58.346Z,58.88
2023-05-13T23:48:28.629Z,59.61
2023-05-13T23:50:55.789Z,60.91
2023-05-13T23:53:22.974Z,60.96
2023-05-13T23:55:50.437Z,58.60
2023-05-13T23:58:17.589Z,58.98
